Alvwood, Minnesota
Current Conditions -  °F | °C
As of 11:54 AM on Thursday 23 Oct 2014 (Local Time) from KVWU Reporting Station
Clear Clear  
Wind Chill: 61°   Ceiling: Unl
Heat Index: 61°   Visibility: 10mi
Dew Point: 48°   Wind: 9mph
Humidity: 63%   Direction: 240°WSW
Pressure: 29.88"   Gusts: NA
Location:  47.7306°N, 94.3762°W
Report Text: KVWU 231654Z AUTO 24008KT 10SM CLR 16/09 A2988 RMK AO2
Loading
Personal Weather Stations






























Interactive Weather Map New forecast layout! Learn more

10-Day Weather Forecast

Advertisements
Track Severe Weather on mobile